Aérodrome :
LOGIN :

S'inscrire | Disclaimer

   EN    FR    IT 

 










Légende :    VFR   VFR Marginal   IFR   IFR Intensif   IFR Très Intensif
Visi : 
Plafond : 
>= 8 km
>= 3000ft
5 à 8 km
1000 à 3000 ft
1500m à 5 km
500 à 1000 ft
800 à 1500m
200 à 500 ft
< 800m
< 200 ft
Symboles :   Orages  Brouillard  Fortes neiges  Fortes précipitations  Vent > 20 kt
SIGMETs :   Divers  Orages  Givrage  Turbulence  Onde Orograph.  Cendres Volcan.






- Altitude de l'aérodrome : 243 ft
- Code IATA : HOV


ENOV - Ørsta-Volda , Hovden

DERNIER METAR :
  • 222150Z VRB02KT 9999 FEW050 SCT065 BKN080 03/00 Q1011 RMK WIND 2175FT 13016KT

METARs EXPIRÉS :
  • 222120Z VRB02KT 9999 FEW050 SCT060 BKN080 02/00 Q1011 RMK WIND 2175FT 13014KT
  • 222050Z VRB02KT 9999 VCSH FEW050 BKN070 02/00 Q1011 RMK WIND 2175FT 13015KT
  • 222020Z VRB02KT 9999 VCSH FEW045 BKN060 03/00 Q1011 RMK WIND 2175FT 15013KT
  • 221950Z VRB02KT 9999 VCSH FEW035 SCT045 BKN060 03/00 Q1011 RMK WIND 2175FT 14016KT

TAF N/A



MET'MAP, la Météo Aéronautique d'un coup d'oeil ! - Copyright ORBIFLY Décembre 2007 - Disclaimer

ORBIFLY MET'MAP TEAM :

Programmation & Développement : Alexandra Zaïnal
Conception & Développement : Baudouin d'Aumeries
Co-Programmation & Développement : Marc-Olivier Méhu
Soutien technique & logistique : Manuel Goepfert

Contact : metmap@orbifly.com




SOURCES & CREDITS :

   NOAA